Time;durP1;ratioP1;P1;durP2;ratioP2;P2;SDS_P1;SDS_P2;PMS_P1;PMS_P2;Temp;Humidity;BMP_temperature;BMP_pressure;BME280_temperature;BME280_humidity;BME280_pressure;Samples;Min_cycle;Max_cycle;Signal;HPM_P1;HPM_P2
2023/05/30 00:00:25;;;;;;;7.25;4.43;;;13.50;99.90;;;;;;4989946;28;20039;-84
2023/05/30 00:02:51;;;;;;;8.55;4.32;;;13.50;99.90;;;;;;4988931;28;20646;-86
2023/05/30 00:05:17;;;;;;;12.25;4.35;;;13.40;99.90;;;;;;4989693;28;20084;-84
2023/05/30 00:07:43;;;;;;;7.70;4.30;;;13.40;99.90;;;;;;4997411;28;20053;-84
2023/05/30 00:10:08;;;;;;;11.70;4.57;;;13.40;99.90;;;;;;5001710;28;20050;-84
2023/05/30 00:12:35;;;;;;;10.52;4.97;;;13.40;99.90;;;;;;4995655;28;20030;-84
2023/05/30 00:15:01;;;;;;;7.57;4.40;;;13.30;99.90;;;;;;4994245;28;20061;-84
2023/05/30 00:17:27;;;;;;;10.35;4.63;;;13.30;99.90;;;;;;4994552;28;20072;-84
2023/05/30 00:19:54;;;;;;;11.07;4.70;;;13.20;99.90;;;;;;4993784;28;20053;-84
2023/05/30 00:22:20;;;;;;;8.82;4.47;;;13.20;99.90;;;;;;4994921;28;20048;-84
2023/05/30 00:24:46;;;;;;;8.00;4.50;;;13.10;99.90;;;;;;4993923;28;20039;-85
2023/05/30 00:27:13;;;;;;;7.13;4.70;;;13.00;99.90;;;;;;4993347;28;20080;-84
2023/05/30 00:29:39;;;;;;;8.13;4.63;;;13.00;99.90;;;;;;4991850;28;20378;-84
2023/05/30 00:32:05;;;;;;;8.60;4.70;;;13.00;99.90;;;;;;4995012;28;20049;-84
2023/05/30 00:34:30;;;;;;;8.07;5.10;;;12.90;99.90;;;;;;4992169;28;20030;-84
2023/05/30 00:36:56;;;;;;;7.80;4.90;;;12.80;99.90;;;;;;4993751;28;20025;-84
2023/05/30 00:39:21;;;;;;;7.05;4.60;;;12.80;99.90;;;;;;4994362;28;20026;-84
2023/05/30 00:41:47;;;;;;;6.93;4.40;;;12.80;99.90;;;;;;4994475;28;20092;-83
2023/05/30 00:44:13;;;;;;;7.30;4.93;;;12.80;99.90;;;;;;4993301;28;20042;-85
2023/05/30 00:46:39;;;;;;;7.28;4.53;;;12.70;99.90;;;;;;4993547;28;20038;-84
2023/05/30 00:49:05;;;;;;;8.57;5.47;;;12.70;99.90;;;;;;5000489;28;20101;-83
2023/05/30 00:51:31;;;;;;;11.73;5.55;;;12.70;99.90;;;;;;5002025;28;20228;-83
2023/05/30 00:53:59;;;;;;;7.45;4.70;;;12.70;99.90;;;;;;5001779;28;20046;-84
2023/05/30 00:56:26;;;;;;;9.57;4.18;;;12.70;99.90;;;;;;4998757;28;20037;-84
2023/05/30 00:58:52;;;;;;;6.75;4.75;;;12.60;99.90;;;;;;4993276;28;20032;-84
2023/05/30 01:01:20;;;;;;;9.00;5.30;;;12.60;99.90;;;;;;4993900;28;20030;-85
2023/05/30 01:03:50;;;;;;;9.68;5.00;;;12.60;99.90;;;;;;4990137;28;20045;-84
2023/05/30 01:06:17;;;;;;;10.63;5.50;;;12.60;99.90;;;;;;4992668;28;20029;-84
2023/05/30 01:08:43;;;;;;;8.52;5.05;;;12.60;99.90;;;;;;4992094;28;20398;-84
2023/05/30 01:11:36;;;;;;;8.88;4.85;;;12.50;99.90;;;;;;4993018;28;20042;-85
2023/05/30 01:14:33;;;;;;;8.40;4.68;;;12.50;99.90;;;;;;4985847;28;20081;-84
2023/05/30 01:17:05;;;;;;;7.50;4.47;;;12.50;99.90;;;;;;4991465;28;20046;-85
2023/05/30 01:19:46;;;;;;;6.63;4.75;;;12.50;99.90;;;;;;4992875;28;20069;-84
2023/05/30 01:22:36;;;;;;;9.13;5.05;;;12.40;99.90;;;;;;4991210;28;20049;-85
2023/05/30 01:25:25;;;;;;;9.27;4.60;;;12.40;99.90;;;;;;4993328;28;20062;-85
2023/05/30 01:28:07;;;;;;;7.05;4.88;;;12.40;99.90;;;;;;4989654;28;20102;-84
2023/05/30 01:30:37;;;;;;;10.40;4.80;;;12.40;99.90;;;;;;4992430;28;20088;-84
2023/05/30 01:33:05;;;;;;;10.10;4.53;;;12.40;99.90;;;;;;4993309;28;20637;-85
2023/05/30 01:35:30;;;;;;;8.68;4.80;;;12.40;99.90;;;;;;4993468;28;20052;-85
2023/05/30 01:37:56;;;;;;;9.70;4.22;;;12.40;99.90;;;;;;4990554;28;20443;-84
2023/05/30 01:40:25;;;;;;;7.50;4.18;;;12.40;99.90;;;;;;4991356;28;20569;-84
2023/05/30 01:43:01;;;;;;;8.65;4.55;;;12.40;99.90;;;;;;4991195;28;20023;-83
2023/05/30 01:45:42;;;;;;;9.00;3.97;;;12.40;99.90;;;;;;4990446;28;20408;-84
2023/05/30 01:48:11;;;;;;;6.78;4.30;;;12.40;99.90;;;;;;4990943;28;20028;-84
2023/05/30 01:50:45;;;;;;;7.03;4.38;;;12.30;99.90;;;;;;4990467;28;20038;-84
2023/05/30 01:53:17;;;;;;;8.50;4.40;;;12.30;99.90;;;;;;4990578;28;20052;-84
2023/05/30 01:55:45;;;;;;;8.30;4.20;;;12.30;99.90;;;;;;4991253;28;20031;-84
2023/05/30 01:58:13;;;;;;;7.50;3.83;;;12.30;99.90;;;;;;4992282;28;20095;-84
2023/05/30 02:00:40;;;;;;;6.65;3.97;;;12.30;99.90;;;;;;4991106;28;20026;-85
2023/05/30 02:03:05;;;;;;;6.53;4.15;;;12.30;99.90;;;;;;4991033;28;21452;-85
2023/05/30 02:05:31;;;;;;;7.43;4.03;;;12.30;99.90;;;;;;4991727;28;20105;-84
2023/05/30 02:07:57;;;;;;;5.47;3.88;;;12.30;99.90;;;;;;4990642;28;20027;-84
2023/05/30 02:10:22;;;;;;;9.13;4.40;;;12.40;99.90;;;;;;4998146;28;20035;-84
2023/05/30 02:12:48;;;;;;;7.93;4.07;;;12.30;99.90;;;;;;5002463;28;20238;-84
2023/05/30 02:15:13;;;;;;;5.80;4.03;;;12.40;99.90;;;;;;5002479;28;20034;-85
2023/05/30 02:17:39;;;;;;;6.35;3.72;;;12.40;99.90;;;;;;5000356;28;20022;-83
2023/05/30 02:20:05;;;;;;;6.85;3.83;;;12.40;99.90;;;;;;4991184;28;20155;-84
2023/05/30 02:22:31;;;;;;;7.57;4.07;;;12.40;99.90;;;;;;4991191;28;20066;-84
2023/05/30 02:24:57;;;;;;;7.05;3.60;;;12.40;99.90;;;;;;4991014;28;20038;-85
2023/05/30 02:27:24;;;;;;;8.13;4.03;;;12.40;99.90;;;;;;4990153;28;20038;-85
2023/05/30 02:29:50;;;;;;;6.35;4.15;;;12.40;99.90;;;;;;4990788;28;20046;-85
2023/05/30 02:32:16;;;;;;;10.02;3.65;;;12.40;99.90;;;;;;4991544;28;20057;-84
2023/05/30 02:34:42;;;;;;;7.65;3.83;;;12.50;99.90;;;;;;4991795;28;20042;-84
2023/05/30 02:37:07;;;;;;;7.32;3.72;;;12.50;99.90;;;;;;4989389;28;20030;-84
2023/05/30 02:39:33;;;;;;;7.72;3.53;;;12.40;99.90;;;;;;4990777;28;20037;-84
2023/05/30 02:41:58;;;;;;;7.15;3.95;;;12.40;99.90;;;;;;4991465;28;20023;-85
2023/05/30 02:44:24;;;;;;;8.05;3.85;;;12.40;99.90;;;;;;4991859;28;20401;-84
2023/05/30 02:46:50;;;;;;;8.60;3.95;;;12.40;99.90;;;;;;4989492;28;20049;-84
2023/05/30 02:49:15;;;;;;;5.20;3.45;;;12.40;99.90;;;;;;4990577;28;20125;-86
2023/05/30 02:51:42;;;;;;;5.32;3.63;;;12.40;99.90;;;;;;4989837;28;20026;-84
2023/05/30 02:54:07;;;;;;;6.60;3.65;;;12.40;99.90;;;;;;4989514;28;20100;-85
2023/05/30 02:56:33;;;;;;;7.30;3.90;;;12.40;99.90;;;;;;4990617;28;20585;-84
2023/05/30 02:58:59;;;;;;;7.85;3.30;;;12.30;99.90;;;;;;4990433;28;20556;-84
2023/05/30 03:01:24;;;;;;;6.10;3.22;;;12.30;99.90;;;;;;4989450;28;20034;-85
2023/05/30 03:03:50;;;;;;;5.85;3.05;;;12.40;99.90;;;;;;4992705;28;20030;-85
2023/05/30 03:06:16;;;;;;;6.05;3.55;;;12.30;99.90;;;;;;4994193;28;20140;-84
2023/05/30 03:08:45;;;;;;;7.22;3.70;;;12.40;99.90;;;;;;4996199;28;20158;-84
2023/05/30 03:11:11;;;;;;;6.82;3.47;;;12.30;99.90;;;;;;4989377;28;20038;-84
2023/05/30 03:13:36;;;;;;;6.45;3.50;;;12.40;99.90;;;;;;4989957;28;20030;-85
2023/05/30 03:16:02;;;;;;;8.50;3.92;;;12.30;99.90;;;;;;4989568;28;20050;-84
2023/05/30 03:18:28;;;;;;;6.68;3.60;;;12.30;99.90;;;;;;4989644;28;20026;-85
2023/05/30 03:20:54;;;;;;;9.43;3.45;;;12.30;99.90;;;;;;4990252;28;20038;-84
2023/05/30 03:23:20;;;;;;;9.25;3.72;;;12.30;99.90;;;;;;4988721;28;20034;-84
2023/05/30 03:25:45;;;;;;;7.95;4.03;;;12.20;99.90;;;;;;4989180;28;20026;-84
2023/05/30 03:28:11;;;;;;;7.63;3.60;;;12.20;99.90;;;;;;4989528;28;20386;-84
2023/05/30 03:30:37;;;;;;;7.50;4.05;;;12.20;99.90;;;;;;4989994;28;20069;-84
2023/05/30 03:33:02;;;;;;;9.15;4.07;;;12.10;99.90;;;;;;4987803;28;20471;-84
2023/05/30 03:35:28;;;;;;;8.50;4.20;;;12.20;99.90;;;;;;4990331;28;20030;-84
2023/05/30 03:37:54;;;;;;;7.38;4.35;;;12.20;99.90;;;;;;4989107;28;20034;-84
2023/05/30 03:40:19;;;;;;;6.22;3.60;;;12.10;99.90;;;;;;4992762;28;20053;-84
2023/05/30 03:42:45;;;;;;;7.05;4.05;;;12.10;99.90;;;;;;4992989;28;20115;-84
2023/05/30 03:45:11;;;;;;;7.47;3.50;;;12.10;99.90;;;;;;4991571;28;20092;-84
2023/05/30 03:47:36;;;;;;;9.73;3.72;;;12.10;99.90;;;;;;4991949;28;20026;-84
2023/05/30 03:50:02;;;;;;;7.50;3.90;;;12.10;99.90;;;;;;4993448;28;20482;-84
2023/05/30 03:52:28;;;;;;;6.88;4.13;;;12.10;99.90;;;;;;4994717;28;20050;-84
2023/05/30 03:54:54;;;;;;;12.93;4.40;;;12.20;99.90;;;;;;4993656;28;20040;-84
2023/05/30 03:57:19;;;;;;;7.55;3.67;;;12.20;99.90;;;;;;4994296;28;20029;-84
2023/05/30 03:59:45;;;;;;;8.68;3.85;;;12.20;99.90;;;;;;4994896;28;20030;-85
2023/05/30 04:02:11;;;;;;;9.40;4.10;;;12.20;99.90;;;;;;4992550;28;20034;-84
2023/05/30 04:04:37;;;;;;;6.90;3.95;;;12.20;99.90;;;;;;4993938;28;20044;-84
2023/05/30 04:07:03;;;;;;;7.68;3.97;;;12.20;99.90;;;;;;4992447;28;20022;-86
2023/05/30 04:09:29;;;;;;;8.38;3.95;;;12.20;99.90;;;;;;4990420;28;20124;-87
2023/05/30 04:11:56;;;;;;;9.13;4.18;;;12.20;99.90;;;;;;4990841;28;20566;-85
2023/05/30 04:14:21;;;;;;;8.18;4.05;;;12.30;99.90;;;;;;4991437;28;20546;-86
2023/05/30 04:16:47;;;;;;;9.40;4.32;;;12.30;99.90;;;;;;4987723;28;20026;-84
2023/05/30 04:19:12;;;;;;;9.98;4.18;;;12.30;99.90;;;;;;4987421;28;20077;-85
2023/05/30 04:21:38;;;;;;;7.70;3.90;;;12.30;99.90;;;;;;4988329;28;20033;-85
2023/05/30 04:24:04;;;;;;;7.00;4.60;;;12.30;99.90;;;;;;4990040;28;20065;-86
2023/05/30 04:26:31;;;;;;;6.93;4.35;;;12.40;99.90;;;;;;4988630;28;20029;-86
2023/05/30 04:28:56;;;;;;;10.98;3.85;;;12.40;99.90;;;;;;4987263;28;20061;-85
2023/05/30 04:31:23;;;;;;;6.97;3.67;;;12.40;99.90;;;;;;4985789;28;20490;-85
2023/05/30 04:33:54;;;;;;;8.35;3.60;;;12.40;99.90;;;;;;4985481;28;20037;-85
2023/05/30 04:36:19;;;;;;;5.25;3.45;;;12.40;99.90;;;;;;4987855;28;20742;-86
2023/05/30 04:38:49;;;;;;;6.60;3.80;;;12.40;99.90;;;;;;4989877;28;20259;-86
2023/05/30 04:41:24;;;;;;;7.57;4.13;;;12.50;99.90;;;;;;4988700;28;20666;-85
2023/05/30 04:43:54;;;;;;;;;;;12.50;99.90;;;;;;4987691;28;20402;-86
2023/05/30 04:46:23;;;;;;;7.57;3.80;;;12.60;99.90;;;;;;4987574;28;19918;-86
2023/05/30 04:48:51;;;;;;;5.78;3.40;;;12.60;99.90;;;;;;4989451;28;20082;-85
2023/05/30 04:51:17;;;;;;;10.73;4.07;;;12.70;99.90;;;;;;4983141;28;20034;-86
2023/05/30 04:53:42;;;;;;;9.85;3.38;;;12.80;99.90;;;;;;4985740;28;20027;-85
2023/05/30 04:56:08;;;;;;;5.72;3.35;;;12.90;99.90;;;;;;4984246;28;20564;-85
2023/05/30 04:58:34;;;;;;;6.70;3.60;;;13.00;99.90;;;;;;4985747;28;20520;-86
2023/05/30 05:00:59;;;;;;;8.10;3.55;;;13.10;99.90;;;;;;4989284;28;21359;-87
2023/05/30 05:03:25;;;;;;;9.75;3.75;;;13.20;99.90;;;;;;4985829;28;20565;-86
2023/05/30 05:05:50;;;;;;;6.93;3.40;;;13.20;99.90;;;;;;4986209;28;20478;-86
2023/05/30 05:08:16;;;;;;;7.30;3.20;;;13.30;99.90;;;;;;4986587;28;20030;-87
2023/05/30 05:10:42;;;;;;;8.63;3.67;;;13.40;99.90;;;;;;4984963;28;21389;-86
2023/05/30 05:13:07;;;;;;;10.50;3.72;;;13.50;99.90;;;;;;4986329;28;20026;-85
2023/05/30 05:15:33;;;;;;;8.95;4.15;;;13.60;99.90;;;;;;4986005;28;20802;-87
2023/05/30 05:17:58;;;;;;;7.50;3.60;;;13.70;99.90;;;;;;4987543;28;20053;-87
2023/05/30 05:20:24;;;;;;;8.48;3.60;;;13.80;99.90;;;;;;4988197;28;20697;-86
2023/05/30 05:22:50;;;;;;;6.95;3.60;;;13.80;99.90;;;;;;4980550;28;20073;-86
2023/05/30 05:25:15;;;;;;;8.40;3.42;;;13.90;99.90;;;;;;4980753;28;20053;-86
2023/05/30 05:27:42;;;;;;;7.18;3.65;;;14.00;99.90;;;;;;4981369;28;20656;-86
2023/05/30 05:30:08;;;;;;;6.80;3.63;;;14.10;99.90;;;;;;4981571;28;20827;-87
2023/05/30 05:32:36;;;;;;;8.95;3.67;;;14.20;99.90;;;;;;4980271;28;20027;-87
2023/05/30 05:35:02;;;;;;;8.05;3.92;;;14.30;99.90;;;;;;4980823;28;20034;-88
2023/05/30 05:37:28;;;;;;;8.02;3.67;;;14.50;99.90;;;;;;4980881;28;20031;-86
2023/05/30 05:39:53;;;;;;;8.60;3.30;;;14.60;99.90;;;;;;4980538;28;20100;-87
2023/05/30 05:42:19;;;;;;;10.55;3.88;;;14.70;99.90;;;;;;4978557;28;20030;-87
2023/05/30 05:44:44;;;;;;;12.20;4.50;;;14.80;99.90;;;;;;4978539;28;20050;-86
2023/05/30 05:47:10;;;;;;;6.95;3.42;;;15.00;99.90;;;;;;4980449;28;20045;-86
2023/05/30 05:49:35;;;;;;;8.05;3.67;;;15.10;99.90;;;;;;4980332;28;20053;-87
2023/05/30 05:52:01;;;;;;;9.48;3.40;;;15.30;99.90;;;;;;4979332;28;20036;-87
2023/05/30 05:54:27;;;;;;;12.35;4.22;;;15.40;99.90;;;;;;4980182;28;20038;-86
2023/05/30 05:56:52;;;;;;;7.55;3.80;;;15.50;99.90;;;;;;4980569;28;20076;-85
2023/05/30 05:59:18;;;;;;;10.60;3.80;;;15.70;99.90;;;;;;4980907;28;20038;-86
2023/05/30 06:01:44;;;;;;;9.73;6.63;;;15.80;99.90;;;;;;4982770;28;20676;-85
2023/05/30 06:04:11;;;;;;;7.88;3.47;;;15.90;99.90;;;;;;4989333;28;20049;-85
2023/05/30 06:06:37;;;;;;;6.97;3.70;;;15.90;99.90;;;;;;4982965;28;21384;-87
2023/05/30 06:09:03;;;;;;;10.68;3.70;;;15.90;99.90;;;;;;4980391;28;20061;-87
2023/05/30 06:11:29;;;;;;;9.43;3.80;;;15.90;99.90;;;;;;4979691;28;20049;-85
2023/05/30 06:13:54;;;;;;;13.65;4.30;;;16.00;99.90;;;;;;4980032;28;20498;-87
2023/05/30 06:16:20;;;;;;;8.70;3.67;;;16.20;99.90;;;;;;4978495;28;20037;-83
2023/05/30 06:18:45;;;;;;;14.50;4.85;;;16.30;99.90;;;;;;4980585;28;20057;-87
2023/05/30 06:21:11;;;;;;;11.90;3.85;;;16.50;99.90;;;;;;4980372;28;20030;-85
2023/05/30 06:23:37;;;;;;;10.70;3.90;;;16.60;99.90;;;;;;4978602;28;20048;-87
2023/05/30 06:26:02;;;;;;;12.20;3.75;;;16.60;99.90;;;;;;4979982;28;20152;-87
2023/05/30 06:28:28;;;;;;;14.13;4.22;;;16.70;99.90;;;;;;4980010;28;20039;-87
2023/05/30 06:30:54;;;;;;;8.15;4.00;;;16.80;99.90;;;;;;4978613;28;20038;-87
2023/05/30 06:33:20;;;;;;;12.20;4.15;;;16.90;99.90;;;;;;4980619;28;20152;-86
2023/05/30 06:35:46;;;;;;;11.20;4.47;;;17.10;99.90;;;;;;4985353;28;20026;-86
2023/05/30 06:38:12;;;;;;;10.02;3.42;;;17.00;99.90;;;;;;4986127;28;20069;-86
2023/05/30 06:40:40;;;;;;;11.98;4.35;;;17.10;99.90;;;;;;4986349;28;20284;-86
2023/05/30 06:43:06;;;;;;;7.85;3.90;;;17.20;99.90;;;;;;4985531;28;20118;-87
2023/05/30 06:45:31;;;;;;;7.65;3.90;;;17.30;99.90;;;;;;4985764;28;20512;-87
2023/05/30 06:47:57;;;;;;;9.35;3.78;;;17.40;99.90;;;;;;4985876;28;20018;-88
2023/05/30 06:50:23;;;;;;;13.02;4.82;;;17.50;99.90;;;;;;4986187;28;21238;-85
2023/05/30 06:52:48;;;;;;;12.98;4.20;;;17.50;99.90;;;;;;4984898;28;20050;-85
2023/05/30 06:55:15;;;;;;;8.73;3.70;;;17.60;99.90;;;;;;4985598;28;20034;-85
2023/05/30 06:57:42;;;;;;;8.55;4.13;;;17.80;99.90;;;;;;4985603;28;20085;-85
2023/05/30 07:00:09;;;;;;;8.55;3.45;;;17.70;99.90;;;;;;4986623;28;20061;-85
2023/05/30 07:02:35;;;;;;;8.80;3.75;;;17.80;99.90;;;;;;4986765;28;20055;-85
2023/05/30 07:05:00;;;;;;;9.68;3.55;;;17.90;99.90;;;;;;4986559;28;20379;-86
2023/05/30 07:07:26;;;;;;;10.25;3.75;;;18.00;99.90;;;;;;4984981;28;20030;-85
2023/05/30 07:09:52;;;;;;;5.78;3.25;;;18.00;99.90;;;;;;4985644;28;21439;-85
2023/05/30 07:12:17;;;;;;;8.40;3.40;;;18.00;99.90;;;;;;4985501;28;20047;-85
2023/05/30 07:14:43;;;;;;;9.63;4.07;;;18.10;99.90;;;;;;4985020;28;20049;-85
2023/05/30 07:17:08;;;;;;;8.05;3.55;;;18.10;99.90;;;;;;4985282;28;20494;-85
2023/05/30 07:19:34;;;;;;;8.07;3.80;;;18.10;99.90;;;;;;4985848;28;20050;-85
2023/05/30 07:21:59;;;;;;;6.95;3.45;;;18.20;99.90;;;;;;4984734;28;20394;-86
2023/05/30 07:24:25;;;;;;;6.18;3.72;;;18.20;99.90;;;;;;4986002;28;20037;-86
2023/05/30 07:26:50;;;;;;;6.10;3.40;;;18.30;99.90;;;;;;4988375;28;20033;-86
2023/05/30 07:29:16;;;;;;;9.27;3.63;;;18.30;99.90;;;;;;4987422;28;20034;-85
2023/05/30 07:31:41;;;;;;;7.72;3.65;;;18.40;99.90;;;;;;4987686;28;20202;-85
2023/05/30 07:34:07;;;;;;;7.10;3.60;;;18.30;99.90;;;;;;4985444;28;20038;-85
2023/05/30 07:36:33;;;;;;;10.27;3.97;;;18.40;99.90;;;;;;4985466;28;20073;-85
2023/05/30 07:38:58;;;;;;;7.45;3.63;;;18.40;99.90;;;;;;4985616;28;20038;-85
2023/05/30 07:41:24;;;;;;;6.25;3.50;;;18.50;99.90;;;;;;4985207;28;20054;-86
2023/05/30 07:43:50;;;;;;;8.10;3.45;;;18.40;99.90;;;;;;4985914;28;20041;-85
2023/05/30 07:46:15;;;;;;;11.43;3.80;;;18.50;99.90;;;;;;4985805;28;20749;-86
2023/05/30 07:48:41;;;;;;;8.95;4.00;;;18.60;99.90;;;;;;4985933;28;20529;-86
2023/05/30 07:51:08;;;;;;;7.38;3.50;;;18.60;99.90;;;;;;4986247;28;20030;-85
2023/05/30 07:53:34;;;;;;;7.07;3.67;;;18.60;99.90;;;;;;4985458;28;20480;-86
2023/05/30 07:55:59;;;;;;;14.18;3.92;;;18.70;99.90;;;;;;4985112;28;20030;-86
2023/05/30 07:58:25;;;;;;;7.63;3.30;;;18.80;99.90;;;;;;4985304;28;20445;-86
2023/05/30 08:00:51;;;;;;;7.68;3.25;;;18.80;99.90;;;;;;4985620;28;20026;-85
2023/05/30 08:03:16;;;;;;;13.05;3.85;;;18.90;99.90;;;;;;4985601;28;21410;-86
2023/05/30 08:05:42;;;;;;;9.00;3.95;;;18.90;99.90;;;;;;4983147;28;20443;-85
2023/05/30 08:08:08;;;;;;;6.60;3.67;;;18.90;99.90;;;;;;4982743;28;20026;-85
2023/05/30 08:10:34;;;;;;;6.65;3.45;;;19.00;99.90;;;;;;4984677;28;20034;-86
2023/05/30 08:12:59;;;;;;;6.65;3.70;;;19.00;99.90;;;;;;4984395;28;20291;-86
2023/05/30 08:15:26;;;;;;;7.00;3.80;;;19.20;99.90;;;;;;4984503;28;20026;-85
2023/05/30 08:17:51;;;;;;;9.30;3.80;;;19.20;99.90;;;;;;4985583;28;20038;-85
2023/05/30 08:20:17;;;;;;;8.38;3.53;;;19.20;99.90;;;;;;4984910;28;20631;-85
2023/05/30 08:22:43;;;;;;;10.13;3.67;;;19.20;99.90;;;;;;4983147;28;20045;-86
2023/05/30 08:25:08;;;;;;;8.57;3.42;;;19.20;99.90;;;;;;4984462;28;20034;-85
2023/05/30 08:27:34;;;;;;;7.85;3.45;;;19.20;99.90;;;;;;4987750;28;20080;-85
2023/05/30 08:30:00;;;;;;;7.93;3.92;;;19.30;99.90;;;;;;4989381;28;20068;-85
2023/05/30 08:32:27;;;;;;;9.98;4.05;;;19.40;99.90;;;;;;4988650;28;20156;-85
2023/05/30 08:34:52;;;;;;;9.13;3.97;;;19.40;99.90;;;;;;4987393;28;20068;-85
2023/05/30 08:37:19;;;;;;;10.25;3.60;;;19.50;99.90;;;;;;4986538;28;20560;-84
2023/05/30 08:39:45;;;;;;;8.65;3.85;;;19.50;99.90;;;;;;4987670;28;20039;-85
2023/05/30 08:42:12;;;;;;;8.73;4.13;;;19.60;99.90;;;;;;4987966;28;20085;-85
2023/05/30 08:44:39;;;;;;;5.68;4.07;;;19.70;99.90;;;;;;4988775;28;20072;-85
2023/05/30 08:47:11;;;;;;;11.90;4.10;;;19.70;99.90;;;;;;4987251;28;20394;-84
2023/05/30 08:49:40;;;;;;;9.57;4.50;;;19.60;99.90;;;;;;4988690;28;20055;-85
2023/05/30 08:52:09;;;;;;;10.70;3.97;;;19.70;99.90;;;;;;4990011;28;20073;-86
2023/05/30 08:54:40;;;;;;;6.78;3.85;;;19.80;99.90;;;;;;4988450;28;21368;-85
2023/05/30 08:57:19;;;;;;;12.02;3.63;;;19.90;99.90;;;;;;4991514;28;20359;-86
2023/05/30 08:59:47;;;;;;;8.90;3.45;;;19.80;99.90;;;;;;4994342;28;20026;-85
2023/05/30 09:02:14;;;;;;;6.38;3.47;;;19.90;99.90;;;;;;4992425;28;20382;-86
2023/05/30 09:04:41;;;;;;;10.10;3.63;;;20.00;99.90;;;;;;4988779;28;20030;-85
2023/05/30 09:07:07;;;;;;;12.98;3.85;;;20.20;99.90;;;;;;4987219;28;20033;-85
2023/05/30 09:09:33;;;;;;;8.57;3.88;;;20.20;99.90;;;;;;4987325;28;21250;-85
2023/05/30 09:11:59;;;;;;;9.38;4.40;;;20.40;99.90;;;;;;4988522;28;20045;-85
2023/05/30 09:14:25;;;;;;;5.47;3.25;;;20.50;99.90;;;;;;4987411;28;20014;-86
2023/05/30 09:16:50;;;;;;;8.50;3.85;;;20.50;99.90;;;;;;4986705;28;20038;-86
2023/05/30 09:19:16;;;;;;;9.68;3.83;;;20.60;99.90;;;;;;4987863;28;20390;-85
2023/05/30 09:21:42;;;;;;;8.00;3.88;;;20.70;99.90;;;;;;4987624;28;20026;-85
2023/05/30 09:24:07;;;;;;;7.45;3.65;;;20.80;99.90;;;;;;4987625;28;20054;-84
2023/05/30 09:26:33;;;;;;;6.80;3.88;;;21.00;99.90;;;;;;4987240;28;20014;-84
2023/05/30 09:29:09;;;;;;;10.77;4.00;;;21.10;99.90;;;;;;4987128;28;20627;-84
2023/05/30 09:31:36;;;;;;;9.95;3.85;;;21.40;99.90;;;;;;4987668;28;20029;-83
2023/05/30 09:34:02;;;;;;;6.50;4.03;;;21.60;99.90;;;;;;4986346;28;20050;-84
2023/05/30 09:36:28;;;;;;;8.63;3.53;;;21.60;99.90;;;;;;4986490;28;20200;-84
2023/05/30 09:39:04;;;;;;;9.27;4.15;;;21.90;99.90;;;;;;4986738;28;20019;-84
2023/05/30 09:41:31;;;;;;;7.75;3.80;;;22.20;99.90;;;;;;4986849;28;20030;-84
2023/05/30 09:43:57;;;;;;;12.40;4.32;;;22.40;99.90;;;;;;4986945;28;20041;-84
2023/05/30 09:46:25;;;;;;;7.15;4.45;;;22.60;99.90;;;;;;4985783;28;20058;-84
2023/05/30 09:48:51;;;;;;;8.98;3.90;;;22.80;99.90;;;;;;4986844;28;20065;-84
2023/05/30 09:51:18;;;;;;;6.65;3.75;;;23.00;99.90;;;;;;4986056;28;20038;-84
2023/05/30 09:54:00;;;;;;;10.48;3.10;;;23.30;99.90;;;;;;4986892;28;20031;-83
2023/05/30 09:56:30;;;;;;;7.40;3.30;;;23.40;99.90;;;;;;4985715;28;20494;-84
2023/05/30 09:59:02;;;;;;;8.57;3.75;;;23.40;99.90;;;;;;4986257;28;20039;-84
2023/05/30 10:01:45;;;;;;;6.78;4.20;;;23.40;99.90;;;;;;4986381;28;20136;-83
2023/05/30 10:04:16;;;;;;;11.45;3.65;;;23.80;99.90;;;;;;4984959;28;20026;-84
2023/05/30 10:06:47;;;;;;;7.75;3.70;;;23.90;99.90;;;;;;4985205;28;20033;-84
2023/05/30 10:09:14;;;;;;;9.15;3.42;;;24.00;99.90;;;;;;4985908;28;20442;-84
2023/05/30 10:11:41;;;;;;;8.25;3.90;;;24.10;99.90;;;;;;4986231;28;20029;-84
2023/05/30 10:14:08;;;;;;;8.55;3.95;;;24.10;99.90;;;;;;4986736;28;20040;-85
2023/05/30 10:16:38;;;;;;;10.95;3.70;;;24.10;99.90;;;;;;4986042;28;20030;-83
2023/05/30 10:19:10;;;;;;;7.53;3.78;;;24.00;99.90;;;;;;4985634;28;20026;-84
2023/05/30 10:21:38;;;;;;;6.88;3.70;;;23.90;99.90;;;;;;4986268;28;20774;-84
2023/05/30 10:24:06;;;;;;;7.00;3.63;;;24.20;99.90;;;;;;4984833;28;21207;-84
2023/05/30 10:26:35;;;;;;;5.38;3.85;;;24.20;99.90;;;;;;4985178;28;20087;-84
2023/05/30 10:29:06;;;;;;;7.55;3.67;;;24.40;99.90;;;;;;4984754;28;20034;-84
2023/05/30 10:31:32;;;;;;;8.13;4.03;;;24.30;99.90;;;;;;4985947;28;20019;-84
2023/05/30 10:34:02;;;;;;;7.90;3.40;;;24.40;99.90;;;;;;4985311;28;20045;-84
2023/05/30 10:36:29;;;;;;;6.68;3.78;;;24.40;99.90;;;;;;4984004;28;20030;-84
2023/05/30 10:39:02;;;;;;;8.85;3.60;;;24.00;99.90;;;;;;4985066;28;20125;-84
2023/05/30 10:41:37;;;;;;;14.18;4.05;;;23.80;99.90;;;;;;4986236;28;20073;-84
2023/05/30 10:44:29;;;;;;;9.40;3.35;;;23.80;99.90;;;;;;4986154;28;20125;-84
2023/05/30 10:47:11;;;;;;;9.13;3.55;;;24.00;99.90;;;;;;4984605;28;20113;-84
2023/05/30 10:49:38;;;;;;;10.23;3.13;;;24.30;99.90;;;;;;4984662;28;20049;-85
2023/05/30 10:52:06;;;;;;;9.50;3.53;;;24.30;99.90;;;;;;4984716;28;20088;-84
2023/05/30 10:54:36;;;;;;;8.52;3.55;;;23.80;99.90;;;;;;4985234;28;20030;-83
2023/05/30 10:57:24;;;;;;;9.82;3.47;;;23.60;99.40;;;;;;5023302;22;20126;-86
2023/05/30 10:59:52;;;;;;;7.95;3.50;;;23.20;99.90;;;;;;5021858;28;20081;-86
2023/05/30 11:02:37;;;;;;;7.90;3.10;;;22.90;99.90;;;;;;5023211;28;20029;-86
2023/05/30 11:05:08;;;;;;;5.90;3.60;;;22.60;99.90;;;;;;5023224;28;20149;-86
2023/05/30 11:07:38;;;;;;;10.82;3.78;;;22.60;99.90;;;;;;5001910;28;20044;-86
2023/05/30 11:10:11;;;;;;;7.47;3.40;;;23.00;99.90;;;;;;5002499;28;20042;-86
2023/05/30 11:12:44;;;;;;;8.35;3.40;;;23.50;99.90;;;;;;5003111;28;20164;-84
2023/05/30 11:15:30;;;;;;;6.22;3.38;;;24.10;99.90;;;;;;5003220;28;20061;-85
2023/05/30 11:17:56;;;;;;;7.55;3.70;;;24.20;99.90;;;;;;5004130;28;20049;-84
2023/05/30 11:20:22;;;;;;;8.45;3.90;;;24.20;99.90;;;;;;5003753;28;20531;-85
2023/05/30 11:23:03;;;;;;;5.22;3.10;;;24.50;99.90;;;;;;5003050;28;20776;-85
2023/05/30 11:25:31;;;;;;;6.55;3.50;;;24.90;98.50;;;;;;5002691;28;20037;-85
2023/05/30 11:28:03;;;;;;;6.18;3.20;;;25.20;99.50;;;;;;5003256;28;20486;-85
2023/05/30 11:30:29;;;;;;;6.65;3.38;;;25.50;98.70;;;;;;5002983;28;20038;-86
2023/05/30 11:32:56;;;;;;;8.95;3.85;;;25.70;99.10;;;;;;5000088;28;20061;-76
2023/05/30 11:35:22;;;;;;;8.73;3.47;;;25.80;96.30;;;;;;5001222;28;20067;-76
2023/05/30 11:37:48;;;;;;;7.18;3.42;;;25.70;95.60;;;;;;5002261;28;20030;-76
2023/05/30 11:40:15;;;;;;;9.27;3.88;;;25.70;94.80;;;;;;5001845;28;20485;-76
2023/05/30 11:42:41;;;;;;;8.48;3.53;;;25.90;96.20;;;;;;5002120;28;20034;-77
2023/05/30 11:45:08;;;;;;;4.93;3.30;;;26.20;93.80;;;;;;5001613;28;20689;-76
2023/05/30 11:47:33;;;;;;;7.00;3.63;;;26.40;95.00;;;;;;5002151;28;20037;-76
2023/05/30 11:49:59;;;;;;;6.60;3.80;;;26.60;94.40;;;;;;5002052;28;20037;-76
2023/05/30 11:52:24;;;;;;;6.25;3.47;;;26.40;92.60;;;;;;5002244;28;20993;-77
2023/05/30 11:54:50;;;;;;;6.05;3.38;;;26.40;94.40;;;;;;5002008;28;20125;-76
2023/05/30 11:57:17;;;;;;;7.07;3.28;;;26.30;93.70;;;;;;4996570;28;20482;-77
2023/05/30 11:59:48;;;;;;;7.93;3.17;;;26.40;92.40;;;;;;4993557;28;20052;-76
2023/05/30 12:02:15;;;;;;;6.07;3.17;;;26.60;92.10;;;;;;4996468;28;20076;-76
2023/05/30 12:04:42;;;;;;;7.88;3.55;;;27.00;92.10;;;;;;4995237;28;20059;-76
2023/05/30 12:07:08;;;;;;;8.25;3.53;;;27.40;91.90;;;;;;4994586;28;20120;-76
2023/05/30 12:09:41;;;;;;;5.00;3.38;;;27.20;92.00;;;;;;4995320;28;20142;-76
2023/05/30 12:12:08;;;;;;;6.85;3.47;;;27.40;91.30;;;;;;4994814;28;20038;-76
2023/05/30 12:14:55;;;;;;;6.47;3.20;;;27.70;90.90;;;;;;4994818;28;20022;-76
2023/05/30 12:17:21;;;;;;;10.68;3.70;;;27.70;89.60;;;;;;4992951;28;20037;-77
2023/05/30 12:19:55;;;;;;;7.28;3.28;;;27.50;87.30;;;;;;4995875;28;20030;-76
2023/05/30 12:22:22;;;;;;;7.72;3.35;;;27.10;88.10;;;;;;4995173;28;20045;-76
2023/05/30 12:24:49;;;;;;;5.85;3.22;;;26.50;89.60;;;;;;4995857;28;20669;-77
2023/05/30 12:27:20;;;;;;;6.72;3.60;;;26.00;90.10;;;;;;4992261;28;20133;-76
2023/05/30 12:29:45;;;;;;;8.90;3.40;;;25.30;91.10;;;;;;4994790;28;20132;-76
2023/05/30 12:32:11;;;;;;;8.70;3.47;;;24.80;90.80;;;;;;4996358;28;20045;-76
2023/05/30 12:34:45;;;;;;;9.02;3.63;;;24.90;90.90;;;;;;4995288;28;20061;-76
2023/05/30 12:37:12;;;;;;;6.63;3.45;;;25.00;92.40;;;;;;4993925;28;20156;-76
2023/05/30 12:39:49;;;;;;;6.18;3.50;;;25.50;90.20;;;;;;5001982;28;20058;-76
2023/05/30 12:42:29;;;;;;;8.13;3.33;;;25.70;91.00;;;;;;5002213;28;20030;-76
2023/05/30 12:44:58;;;;;;;4.97;3.33;;;25.90;91.70;;;;;;5001878;28;20565;-76
2023/05/30 12:47:26;;;;;;;6.68;3.13;;;26.20;92.10;;;;;;5001750;28;20041;-77